Terminal Aerodrome Forecast
Issued by NWS Wilmington, OH

Current Version | Previous Version | Graphics & Text | Print | Product List | Glossary On
Versions: 1 2 3 4 5 6 7 8 9 10 11 12 13 14 15 16 17
000
FTUS41 KILN 281740
TAFDAY
TAF
KDAY 281740Z 2818/2918 08005KT P6SM VCTS SCT025CB BKN035
     FM282000 08005KT P6SM VCSH SCT025 BKN035
     FM282200 VRB03KT P6SM SCT035
     FM290600 00000KT 4SM BR FEW035
     FM290900 00000KT 1/2SM FG FEW250
     FM291300 25005KT P6SM SCT025 BKN250=

USA.gov is the U.S. government's official web portal to all federal, state and local government web resources and services.